Deer Park, AL

10:09 AM CST on February 14, 2016 (GMT -0600)
York Hill Gulfcrest, Alabama | | Change Station
CLOSE
Current Station
Personal Weather Station
Location: Chunchula, AL
Elevation: 190 ft
Nearby Weather Stations

Elev 190 ft 30.99 °N, 88.24 °W | Updated 14 minutes ago

Partly Cloudy
Partly Cloudy
52.0 °F
Feels Like 52.0 °F
N
0.0
Wind Variable Wind from East

Today
High -- | Low -- °F
--% Chance of Precip.
Yesterday
High -- | Low -- °F
Precip. -- in
Pressure 30.28 in
Visibility 10.0 miles
Clouds Few 11000 ft
Scattered Clouds 25000 ft
Dew Point 32 °F
Humidity 47%
Rainfall 0.00 in
Snow Depth Not available.
6:35 AM 5:39 PM
Waxing Crescent, 43% visible
METAR KMOB 141556Z 10011KT 10SM FEW110 SCT250 12/02 A3028 RMK AO2 SLP253 T01220022
Pressure 30.28 in
Visibility 10.0 miles
Clouds Few 11000 ft
Scattered Clouds 25000 ft
Dew Point 32 °F
Humidity 47%
Rainfall 0.00 in
Snow Depth Not available.
6:35 AM 5:39 PM
Waxing Crescent, 43% visible
METAR KMOB 141556Z 10011KT 10SM FEW110 SCT250 12/02 A3028 RMK AO2 SLP253 T01220022

10-Day Weather Forecast

Almanac

Astronomy

Feb. 14, 2016 Rise Set
Actual Time
Civil Twilight
Nautical Twilight
Astronomical Twilight
Moon
Length of Visible Light
Length of Day
Tomorrow will be .
, % of the Moon is Illuminated

Today's Extremes

State Highs State Lows

Community

WunderPhotos

Upload Photos

1,892,819 photos uploaded!

WunderBlog® & News

Nearby

Air Quality

  Air Quality AQ Index Pollutant
Not available.

Snow Depth

Station Depth Elevation

Earthquake Activity

City Distance Mag. Time & Date
Minimum magnitude displayed is 2.5.

Coastal Water Temperatures

Place Temperature

Stations

Nearby Weather Stations

Station Location Temp. Windchill Dew Point Humidity Wind Precip. Elev Updated Type
                   

Watches & Warnings

There are currently no watches in effect.